sensor_id;sensor_type;location;lat;lon;timestamp;P1;durP1;ratioP1;P2;durP2;ratioP2
46931;SDS011;32670;51.464;11.964;2023-04-04T00:00:08;1.57;;;1.00;;
46931;SDS011;32670;51.464;11.964;2023-04-04T00:02:35;1.53;;;0.90;;
46931;SDS011;32670;51.464;11.964;2023-04-04T00:05:01;1.77;;;1.07;;
46931;SDS011;32670;51.464;11.964;2023-04-04T00:07:26;2.30;;;1.00;;
46931;SDS011;32670;51.464;11.964;2023-04-04T00:09:52;1.33;;;1.00;;
46931;SDS011;32670;51.464;11.964;2023-04-04T00:12:17;1.13;;;1.03;;
46931;SDS011;32670;51.464;11.964;2023-04-04T00:14:43;1.50;;;1.10;;
46931;SDS011;32670;51.464;11.964;2023-04-04T00:17:08;2.33;;;1.00;;
46931;SDS011;32670;51.464;11.964;2023-04-04T00:19:34;1.20;;;0.87;;
46931;SDS011;32670;51.464;11.964;2023-04-04T00:21:59;1.80;;;1.17;;
46931;SDS011;32670;51.464;11.964;2023-04-04T00:24:25;1.17;;;0.80;;
46931;SDS011;32670;51.464;11.964;2023-04-04T00:26:50;2.87;;;1.10;;
46931;SDS011;32670;51.464;11.964;2023-04-04T00:29:16;3.90;;;0.80;;
46931;SDS011;32670;51.464;11.964;2023-04-04T00:31:42;1.53;;;0.90;;
46931;SDS011;32670;51.464;11.964;2023-04-04T00:34:07;2.97;;;0.90;;
46931;SDS011;32670;51.464;11.964;2023-04-04T00:36:33;1.03;;;0.90;;
46931;SDS011;32670;51.464;11.964;2023-04-04T00:38:58;2.10;;;0.90;;
46931;SDS011;32670;51.464;11.964;2023-04-04T00:41:23;2.00;;;1.00;;
46931;SDS011;32670;51.464;11.964;2023-04-04T00:43:49;2.33;;;0.97;;
46931;SDS011;32670;51.464;11.964;2023-04-04T00:46:14;1.87;;;0.87;;
46931;SDS011;32670;51.464;11.964;2023-04-04T00:48:42;2.33;;;0.80;;
46931;SDS011;32670;51.464;11.964;2023-04-04T00:51:08;1.83;;;0.80;;
46931;SDS011;32670;51.464;11.964;2023-04-04T00:53:33;3.40;;;1.10;;
46931;SDS011;32670;51.464;11.964;2023-04-04T00:55:59;1.30;;;0.90;;
46931;SDS011;32670;51.464;11.964;2023-04-04T00:58:25;2.20;;;0.80;;
46931;SDS011;32670;51.464;11.964;2023-04-04T01:00:51;2.37;;;0.90;;
46931;SDS011;32670;51.464;11.964;2023-04-04T01:03:16;1.03;;;0.90;;
46931;SDS011;32670;51.464;11.964;2023-04-04T01:05:43;1.63;;;0.70;;
46931;SDS011;32670;51.464;11.964;2023-04-04T01:08:09;1.37;;;0.97;;
46931;SDS011;32670;51.464;11.964;2023-04-04T01:10:34;3.63;;;0.80;;
46931;SDS011;32670;51.464;11.964;2023-04-04T01:13:01;2.47;;;0.80;;
46931;SDS011;32670;51.464;11.964;2023-04-04T01:15:27;3.90;;;0.77;;
46931;SDS011;32670;51.464;11.964;2023-04-04T01:17:54;1.20;;;0.90;;
46931;SDS011;32670;51.464;11.964;2023-04-04T01:20:24;1.67;;;0.93;;
46931;SDS011;32670;51.464;11.964;2023-04-04T01:22:50;1.37;;;0.90;;
46931;SDS011;32670;51.464;11.964;2023-04-04T01:25:24;1.63;;;0.80;;
46931;SDS011;32670;51.464;11.964;2023-04-04T01:27:55;1.57;;;0.90;;
46931;SDS011;32670;51.464;11.964;2023-04-04T01:30:21;1.60;;;0.90;;
46931;SDS011;32670;51.464;11.964;2023-04-04T01:32:56;1.87;;;1.00;;
46931;SDS011;32670;51.464;11.964;2023-04-04T01:35:34;0.87;;;0.83;;
46931;SDS011;32670;51.464;11.964;2023-04-04T01:41:14;1.13;;;1.00;;
46931;SDS011;32670;51.464;11.964;2023-04-04T01:43:43;1.53;;;0.90;;
46931;SDS011;32670;51.464;11.964;2023-04-04T01:46:10;1.03;;;0.87;;
46931;SDS011;32670;51.464;11.964;2023-04-04T01:48:36;1.13;;;0.70;;
46931;SDS011;32670;51.464;11.964;2023-04-04T01:51:02;0.83;;;0.83;;
46931;SDS011;32670;51.464;11.964;2023-04-04T01:53:27;0.87;;;0.73;;
46931;SDS011;32670;51.464;11.964;2023-04-04T01:55:53;1.00;;;0.90;;
46931;SDS011;32670;51.464;11.964;2023-04-04T01:58:18;4.20;;;0.93;;
46931;SDS011;32670;51.464;11.964;2023-04-04T02:00:44;0.70;;;0.70;;
46931;SDS011;32670;51.464;11.964;2023-04-04T02:03:10;1.90;;;1.03;;
46931;SDS011;32670;51.464;11.964;2023-04-04T02:05:35;1.10;;;0.90;;
46931;SDS011;32670;51.464;11.964;2023-04-04T02:08:01;0.90;;;0.70;;
46931;SDS011;32670;51.464;11.964;2023-04-04T02:10:27;1.57;;;0.93;;
46931;SDS011;32670;51.464;11.964;2023-04-04T02:12:54;1.10;;;0.80;;
46931;SDS011;32670;51.464;11.964;2023-04-04T02:15:19;1.50;;;0.80;;
46931;SDS011;32670;51.464;11.964;2023-04-04T02:17:46;1.87;;;0.80;;
46931;SDS011;32670;51.464;11.964;2023-04-04T02:20:12;1.17;;;0.83;;
46931;SDS011;32670;51.464;11.964;2023-04-04T02:22:38;1.23;;;0.90;;
46931;SDS011;32670;51.464;11.964;2023-04-04T02:25:03;0.70;;;0.70;;
46931;SDS011;32670;51.464;11.964;2023-04-04T02:27:29;1.00;;;0.80;;
46931;SDS011;32670;51.464;11.964;2023-04-04T02:29:55;0.80;;;0.70;;
46931;SDS011;32670;51.464;11.964;2023-04-04T02:32:21;1.10;;;1.00;;
46931;SDS011;32670;51.464;11.964;2023-04-04T02:34:47;0.80;;;0.70;;
46931;SDS011;32670;51.464;11.964;2023-04-04T02:37:12;0.97;;;0.60;;
46931;SDS011;32670;51.464;11.964;2023-04-04T02:39:37;0.73;;;0.73;;
46931;SDS011;32670;51.464;11.964;2023-04-04T02:42:03;1.23;;;0.90;;
46931;SDS011;32670;51.464;11.964;2023-04-04T02:44:29;3.53;;;0.77;;
46931;SDS011;32670;51.464;11.964;2023-04-04T02:46:54;0.83;;;0.70;;
46931;SDS011;32670;51.464;11.964;2023-04-04T02:49:20;0.97;;;0.80;;
46931;SDS011;32670;51.464;11.964;2023-04-04T02:51:45;0.83;;;0.60;;
46931;SDS011;32670;51.464;11.964;2023-04-04T02:54:11;0.73;;;0.73;;
46931;SDS011;32670;51.464;11.964;2023-04-04T02:56:37;4.43;;;1.00;;
46931;SDS011;32670;51.464;11.964;2023-04-04T02:59:02;1.97;;;0.60;;
46931;SDS011;32670;51.464;11.964;2023-04-04T03:01:28;1.00;;;0.80;;
46931;SDS011;32670;51.464;11.964;2023-04-04T03:03:54;0.77;;;0.70;;
46931;SDS011;32670;51.464;11.964;2023-04-04T03:06:20;0.97;;;0.70;;
46931;SDS011;32670;51.464;11.964;2023-04-04T03:08:45;2.40;;;0.80;;
46931;SDS011;32670;51.464;11.964;2023-04-04T03:11:11;1.20;;;0.87;;
46931;SDS011;32670;51.464;11.964;2023-04-04T03:13:37;1.03;;;0.70;;
46931;SDS011;32670;51.464;11.964;2023-04-04T03:16:03;0.73;;;0.60;;
46931;SDS011;32670;51.464;11.964;2023-04-04T03:18:30;0.80;;;0.60;;
46931;SDS011;32670;51.464;11.964;2023-04-04T03:20:57;0.87;;;0.80;;
46931;SDS011;32670;51.464;11.964;2023-04-04T03:23:22;0.63;;;0.63;;
46931;SDS011;32670;51.464;11.964;2023-04-04T03:25:48;1.77;;;0.90;;
46931;SDS011;32670;51.464;11.964;2023-04-04T03:28:13;0.70;;;0.70;;
46931;SDS011;32670;51.464;11.964;2023-04-04T03:30:39;0.60;;;0.60;;
46931;SDS011;32670;51.464;11.964;2023-04-04T03:33:04;0.80;;;0.70;;
46931;SDS011;32670;51.464;11.964;2023-04-04T03:35:39;0.97;;;0.73;;
46931;SDS011;32670;51.464;11.964;2023-04-04T03:38:06;1.20;;;0.70;;
46931;SDS011;32670;51.464;11.964;2023-04-04T03:40:32;0.87;;;0.80;;
46931;SDS011;32670;51.464;11.964;2023-04-04T03:42:57;1.03;;;0.70;;
46931;SDS011;32670;51.464;11.964;2023-04-04T03:45:23;1.00;;;0.70;;
46931;SDS011;32670;51.464;11.964;2023-04-04T03:47:49;3.27;;;0.93;;
46931;SDS011;32670;51.464;11.964;2023-04-04T03:50:14;0.70;;;0.70;;
46931;SDS011;32670;51.464;11.964;2023-04-04T03:52:40;0.93;;;0.50;;
46931;SDS011;32670;51.464;11.964;2023-04-04T03:55:05;0.83;;;0.70;;
46931;SDS011;32670;51.464;11.964;2023-04-04T03:57:31;0.67;;;0.67;;
46931;SDS011;32670;51.464;11.964;2023-04-04T03:59:57;2.57;;;0.77;;
46931;SDS011;32670;51.464;11.964;2023-04-04T04:02:22;4.07;;;0.83;;
46931;SDS011;32670;51.464;11.964;2023-04-04T04:04:48;1.37;;;0.73;;
46931;SDS011;32670;51.464;11.964;2023-04-04T04:07:13;1.83;;;0.80;;
46931;SDS011;32670;51.464;11.964;2023-04-04T04:09:39;1.67;;;0.70;;
46931;SDS011;32670;51.464;11.964;2023-04-04T04:12:05;4.77;;;0.80;;
46931;SDS011;32670;51.464;11.964;2023-04-04T04:14:30;1.73;;;0.70;;
46931;SDS011;32670;51.464;11.964;2023-04-04T04:16:56;1.00;;;0.83;;
46931;SDS011;32670;51.464;11.964;2023-04-04T04:19:21;1.70;;;0.80;;
46931;SDS011;32670;51.464;11.964;2023-04-04T04:21:47;1.00;;;0.70;;
46931;SDS011;32670;51.464;11.964;2023-04-04T04:24:12;2.60;;;1.00;;
46931;SDS011;32670;51.464;11.964;2023-04-04T04:26:37;1.63;;;0.80;;
46931;SDS011;32670;51.464;11.964;2023-04-04T04:29:03;2.40;;;1.03;;
46931;SDS011;32670;51.464;11.964;2023-04-04T04:31:28;0.70;;;0.70;;
46931;SDS011;32670;51.464;11.964;2023-04-04T04:33:54;3.67;;;1.20;;
46931;SDS011;32670;51.464;11.964;2023-04-04T04:36:19;2.50;;;0.90;;
46931;SDS011;32670;51.464;11.964;2023-04-04T04:38:45;0.70;;;0.63;;
46931;SDS011;32670;51.464;11.964;2023-04-04T04:41:10;1.80;;;0.63;;
46931;SDS011;32670;51.464;11.964;2023-04-04T04:43:36;1.53;;;0.80;;
46931;SDS011;32670;51.464;11.964;2023-04-04T04:46:01;1.43;;;0.67;;
46931;SDS011;32670;51.464;11.964;2023-04-04T04:48:27;1.67;;;0.70;;
46931;SDS011;32670;51.464;11.964;2023-04-04T04:50:52;1.70;;;0.73;;
46931;SDS011;32670;51.464;11.964;2023-04-04T04:53:18;1.70;;;0.73;;
46931;SDS011;32670;51.464;11.964;2023-04-04T04:55:44;4.27;;;0.70;;
46931;SDS011;32670;51.464;11.964;2023-04-04T04:58:10;2.00;;;0.77;;
46931;SDS011;32670;51.464;11.964;2023-04-04T05:00:36;1.57;;;0.60;;
46931;SDS011;32670;51.464;11.964;2023-04-04T05:03:02;1.27;;;0.70;;
46931;SDS011;32670;51.464;11.964;2023-04-04T05:05:31;0.90;;;0.60;;
46931;SDS011;32670;51.464;11.964;2023-04-04T05:07:58;3.33;;;0.93;;
46931;SDS011;32670;51.464;11.964;2023-04-04T05:10:24;0.70;;;0.60;;
46931;SDS011;32670;51.464;11.964;2023-04-04T05:12:50;1.27;;;0.60;;
46931;SDS011;32670;51.464;11.964;2023-04-04T05:15:15;1.73;;;0.80;;
46931;SDS011;32670;51.464;11.964;2023-04-04T05:17:41;2.80;;;0.67;;
46931;SDS011;32670;51.464;11.964;2023-04-04T05:20:06;1.67;;;0.70;;
46931;SDS011;32670;51.464;11.964;2023-04-04T05:22:32;1.53;;;0.70;;
46931;SDS011;32670;51.464;11.964;2023-04-04T05:24:58;0.70;;;0.60;;
46931;SDS011;32670;51.464;11.964;2023-04-04T05:27:23;0.90;;;0.70;;
46931;SDS011;32670;51.464;11.964;2023-04-04T05:29:49;0.80;;;0.60;;
46931;SDS011;32670;51.464;11.964;2023-04-04T05:32:15;1.00;;;0.70;;
46931;SDS011;32670;51.464;11.964;2023-04-04T05:34:41;1.73;;;0.63;;
46931;SDS011;32670;51.464;11.964;2023-04-04T05:37:06;0.50;;;0.40;;
46931;SDS011;32670;51.464;11.964;2023-04-04T05:39:32;1.83;;;0.63;;
46931;SDS011;32670;51.464;11.964;2023-04-04T05:41:57;1.97;;;0.63;;
46931;SDS011;32670;51.464;11.964;2023-04-04T05:44:23;3.73;;;0.80;;
46931;SDS011;32670;51.464;11.964;2023-04-04T05:46:49;1.97;;;0.70;;
46931;SDS011;32670;51.464;11.964;2023-04-04T05:49:15;3.07;;;0.70;;
46931;SDS011;32670;51.464;11.964;2023-04-04T05:51:40;3.70;;;0.70;;
46931;SDS011;32670;51.464;11.964;2023-04-04T05:54:06;4.00;;;1.07;;
46931;SDS011;32670;51.464;11.964;2023-04-04T05:56:32;4.50;;;1.37;;
46931;SDS011;32670;51.464;11.964;2023-04-04T05:58:58;3.57;;;1.53;;
46931;SDS011;32670;51.464;11.964;2023-04-04T06:01:23;3.13;;;1.70;;
46931;SDS011;32670;51.464;11.964;2023-04-04T06:03:49;2.80;;;1.77;;
46931;SDS011;32670;51.464;11.964;2023-04-04T06:06:15;5.60;;;2.17;;
46931;SDS011;32670;51.464;11.964;2023-04-04T06:08:40;3.17;;;1.90;;
46931;SDS011;32670;51.464;11.964;2023-04-04T06:11:06;3.43;;;2.17;;
46931;SDS011;32670;51.464;11.964;2023-04-04T06:13:31;2.67;;;1.90;;
46931;SDS011;32670;51.464;11.964;2023-04-04T06:15:57;4.47;;;2.33;;
46931;SDS011;32670;51.464;11.964;2023-04-04T06:18:22;6.00;;;2.60;;
46931;SDS011;32670;51.464;11.964;2023-04-04T06:20:48;3.40;;;2.20;;
46931;SDS011;32670;51.464;11.964;2023-04-04T06:23:13;4.00;;;2.10;;
46931;SDS011;32670;51.464;11.964;2023-04-04T06:25:39;3.87;;;1.90;;
46931;SDS011;32670;51.464;11.964;2023-04-04T06:28:04;3.20;;;1.97;;
46931;SDS011;32670;51.464;11.964;2023-04-04T06:30:30;4.90;;;2.27;;
46931;SDS011;32670;51.464;11.964;2023-04-04T06:32:59;5.23;;;2.17;;
46931;SDS011;32670;51.464;11.964;2023-04-04T06:35:25;5.43;;;2.20;;
46931;SDS011;32670;51.464;11.964;2023-04-04T06:37:54;4.30;;;2.10;;
46931;SDS011;32670;51.464;11.964;2023-04-04T06:40:20;3.93;;;2.40;;
46931;SDS011;32670;51.464;11.964;2023-04-04T06:42:49;4.97;;;1.90;;
46931;SDS011;32670;51.464;11.964;2023-04-04T06:45:21;4.73;;;2.10;;
46931;SDS011;32670;51.464;11.964;2023-04-04T06:47:47;4.33;;;2.07;;
46931;SDS011;32670;51.464;11.964;2023-04-04T06:50:14;3.43;;;1.87;;
46931;SDS011;32670;51.464;11.964;2023-04-04T06:52:40;3.50;;;2.07;;
46931;SDS011;32670;51.464;11.964;2023-04-04T06:55:05;3.33;;;1.93;;
46931;SDS011;32670;51.464;11.964;2023-04-04T06:57:32;4.37;;;2.03;;
46931;SDS011;32670;51.464;11.964;2023-04-04T06:59:57;3.60;;;2.30;;
46931;SDS011;32670;51.464;11.964;2023-04-04T07:02:23;4.27;;;2.20;;
46931;SDS011;32670;51.464;11.964;2023-04-04T07:04:48;3.50;;;2.17;;
46931;SDS011;32670;51.464;11.964;2023-04-04T07:07:14;8.73;;;2.40;;
46931;SDS011;32670;51.464;11.964;2023-04-04T07:09:40;8.10;;;2.27;;
46931;SDS011;32670;51.464;11.964;2023-04-04T07:12:06;10.20;;;2.27;;
46931;SDS011;32670;51.464;11.964;2023-04-04T07:14:31;4.70;;;2.20;;
46931;SDS011;32670;51.464;11.964;2023-04-04T07:16:57;5.13;;;1.83;;
46931;SDS011;32670;51.464;11.964;2023-04-04T07:19:22;10.53;;;1.60;;
46931;SDS011;32670;51.464;11.964;2023-04-04T07:21:52;7.53;;;2.43;;
46931;SDS011;32670;51.464;11.964;2023-04-04T07:24:18;5.40;;;1.90;;
46931;SDS011;32670;51.464;11.964;2023-04-04T07:26:43;5.43;;;1.67;;
46931;SDS011;32670;51.464;11.964;2023-04-04T07:29:09;3.93;;;1.60;;
46931;SDS011;32670;51.464;11.964;2023-04-04T07:31:35;4.60;;;1.80;;
46931;SDS011;32670;51.464;11.964;2023-04-04T07:34:00;5.00;;;1.70;;
46931;SDS011;32670;51.464;11.964;2023-04-04T07:36:27;5.57;;;1.57;;
46931;SDS011;32670;51.464;11.964;2023-04-04T07:38:53;3.97;;;1.57;;
46931;SDS011;32670;51.464;11.964;2023-04-04T07:41:19;2.67;;;1.60;;
46931;SDS011;32670;51.464;11.964;2023-04-04T07:43:45;2.70;;;1.43;;
46931;SDS011;32670;51.464;11.964;2023-04-04T07:46:11;4.47;;;1.40;;
46931;SDS011;32670;51.464;11.964;2023-04-04T07:48:36;4.70;;;1.47;;
46931;SDS011;32670;51.464;11.964;2023-04-04T07:51:02;2.67;;;1.50;;
46931;SDS011;32670;51.464;11.964;2023-04-04T07:53:28;2.97;;;1.30;;
46931;SDS011;32670;51.464;11.964;2023-04-04T07:55:54;3.60;;;1.60;;
46931;SDS011;32670;51.464;11.964;2023-04-04T07:58:20;2.70;;;1.50;;
46931;SDS011;32670;51.464;11.964;2023-04-04T08:00:47;3.57;;;1.40;;
46931;SDS011;32670;51.464;11.964;2023-04-04T08:03:13;3.47;;;1.60;;
46931;SDS011;32670;51.464;11.964;2023-04-04T08:05:41;2.73;;;1.80;;
46931;SDS011;32670;51.464;11.964;2023-04-04T08:08:06;1.73;;;1.43;;
46931;SDS011;32670;51.464;11.964;2023-04-04T08:10:32;2.73;;;1.50;;
46931;SDS011;32670;51.464;11.964;2023-04-04T08:12:57;2.07;;;1.20;;
46931;SDS011;32670;51.464;11.964;2023-04-04T08:15:23;2.40;;;1.40;;
46931;SDS011;32670;51.464;11.964;2023-04-04T08:17:48;4.23;;;1.23;;
46931;SDS011;32670;51.464;11.964;2023-04-04T08:20:14;2.90;;;1.50;;
46931;SDS011;32670;51.464;11.964;2023-04-04T08:22:40;4.07;;;1.40;;
46931;SDS011;32670;51.464;11.964;2023-04-04T08:25:06;3.60;;;1.60;;
46931;SDS011;32670;51.464;11.964;2023-04-04T08:27:33;1.73;;;1.17;;
46931;SDS011;32670;51.464;11.964;2023-04-04T08:29:58;3.20;;;1.30;;
46931;SDS011;32670;51.464;11.964;2023-04-04T08:32:24;1.83;;;1.40;;
46931;SDS011;32670;51.464;11.964;2023-04-04T08:34:50;1.73;;;1.30;;
46931;SDS011;32670;51.464;11.964;2023-04-04T08:37:16;2.33;;;1.40;;
46931;SDS011;32670;51.464;11.964;2023-04-04T08:39:42;1.37;;;1.20;;
46931;SDS011;32670;51.464;11.964;2023-04-04T08:42:07;2.17;;;1.50;;
46931;SDS011;32670;51.464;11.964;2023-04-04T08:44:34;3.00;;;1.30;;
46931;SDS011;32670;51.464;11.964;2023-04-04T08:47:03;1.57;;;1.27;;
46931;SDS011;32670;51.464;11.964;2023-04-04T08:49:34;1.20;;;1.10;;
46931;SDS011;32670;51.464;11.964;2023-04-04T08:52:02;3.63;;;1.47;;
46931;SDS011;32670;51.464;11.964;2023-04-04T08:54:30;1.87;;;1.20;;
46931;SDS011;32670;51.464;11.964;2023-04-04T08:56:58;2.63;;;1.20;;
46931;SDS011;32670;51.464;11.964;2023-04-04T08:59:23;2.80;;;1.10;;
46931;SDS011;32670;51.464;11.964;2023-04-04T09:01:50;2.03;;;1.30;;
46931;SDS011;32670;51.464;11.964;2023-04-04T09:04:41;1.60;;;1.20;;
46931;SDS011;32670;51.464;11.964;2023-04-04T09:07:07;1.97;;;1.13;;
46931;SDS011;32670;51.464;11.964;2023-04-04T09:09:33;1.57;;;1.10;;
46931;SDS011;32670;51.464;11.964;2023-04-04T09:12:01;2.20;;;1.20;;
46931;SDS011;32670;51.464;11.964;2023-04-04T09:14:28;1.27;;;0.97;;
46931;SDS011;32670;51.464;11.964;2023-04-04T09:16:55;2.20;;;1.20;;
46931;SDS011;32670;51.464;11.964;2023-04-04T09:19:20;1.73;;;1.10;;
46931;SDS011;32670;51.464;11.964;2023-04-04T09:21:46;2.43;;;1.30;;
46931;SDS011;32670;51.464;11.964;2023-04-04T09:24:13;1.70;;;1.20;;
46931;SDS011;32670;51.464;11.964;2023-04-04T09:26:46;2.87;;;1.30;;
46931;SDS011;32670;51.464;11.964;2023-04-04T09:29:21;1.97;;;1.30;;
46931;SDS011;32670;51.464;11.964;2023-04-04T09:31:47;1.80;;;1.07;;
46931;SDS011;32670;51.464;11.964;2023-04-04T09:34:14;1.50;;;1.10;;
46931;SDS011;32670;51.464;11.964;2023-04-04T09:36:43;1.33;;;1.00;;
46931;SDS011;32670;51.464;11.964;2023-04-04T09:39:09;1.67;;;1.20;;
46931;SDS011;32670;51.464;11.964;2023-04-04T09:41:38;1.33;;;1.00;;
46931;SDS011;32670;51.464;11.964;2023-04-04T09:44:04;2.20;;;1.37;;
46931;SDS011;32670;51.464;11.964;2023-04-04T09:46:31;0.93;;;0.90;;
46931;SDS011;32670;51.464;11.964;2023-04-04T09:48:59;1.60;;;1.10;;
46931;SDS011;32670;51.464;11.964;2023-04-04T09:51:26;1.73;;;1.03;;
46931;SDS011;32670;51.464;11.964;2023-04-04T09:54:02;1.57;;;1.10;;
46931;SDS011;32670;51.464;11.964;2023-04-04T09:56:28;1.37;;;1.07;;
46931;SDS011;32670;51.464;11.964;2023-04-04T09:58:54;1.70;;;1.20;;
46931;SDS011;32670;51.464;11.964;2023-04-04T10:01:20;1.40;;;1.10;;
46931;SDS011;32670;51.464;11.964;2023-04-04T10:03:51;1.77;;;1.20;;
46931;SDS011;32670;51.464;11.964;2023-04-04T10:06:18;1.20;;;1.10;;
46931;SDS011;32670;51.464;11.964;2023-04-04T10:08:45;1.10;;;0.93;;
46931;SDS011;32670;51.464;11.964;2023-04-04T10:11:10;1.50;;;1.10;;
46931;SDS011;32670;51.464;11.964;2023-04-04T10:13:36;1.80;;;1.20;;
46931;SDS011;32670;51.464;11.964;2023-04-04T10:16:05;1.20;;;1.00;;
46931;SDS011;32670;51.464;11.964;2023-04-04T10:18:32;1.20;;;1.10;;
46931;SDS011;32670;51.464;11.964;2023-04-04T10:21:00;3.00;;;1.17;;
46931;SDS011;32670;51.464;11.964;2023-04-04T10:23:26;1.77;;;1.10;;
46931;SDS011;32670;51.464;11.964;2023-04-04T10:25:53;1.20;;;1.00;;
46931;SDS011;32670;51.464;11.964;2023-04-04T10:28:18;1.30;;;0.90;;
46931;SDS011;32670;51.464;11.964;2023-04-04T10:30:48;1.60;;;1.10;;
46931;SDS011;32670;51.464;11.964;2023-04-04T10:33:29;1.00;;;0.83;;
46931;SDS011;32670;51.464;11.964;2023-04-04T10:36:03;1.40;;;1.00;;
46931;SDS011;32670;51.464;11.964;2023-04-04T10:38:34;1.30;;;1.10;;
46931;SDS011;32670;51.464;11.964;2023-04-04T10:41:09;1.27;;;1.10;;
46931;SDS011;32670;51.464;11.964;2023-04-04T10:43:39;1.07;;;0.97;;
46931;SDS011;32670;51.464;11.964;2023-04-04T10:46:16;1.10;;;0.97;;
46931;SDS011;32670;51.464;11.964;2023-04-04T10:48:43;1.00;;;0.90;;
46931;SDS011;32670;51.464;11.964;2023-04-04T10:51:10;1.10;;;1.00;;
46931;SDS011;32670;51.464;11.964;2023-04-04T10:53:37;1.20;;;1.07;;
46931;SDS011;32670;51.464;11.964;2023-04-04T10:56:07;1.30;;;1.10;;
46931;SDS011;32670;51.464;11.964;2023-04-04T10:58:38;1.20;;;1.10;;
46931;SDS011;32670;51.464;11.964;2023-04-04T11:01:05;1.50;;;1.20;;
46931;SDS011;32670;51.464;11.964;2023-04-04T11:03:31;0.80;;;0.80;;
46931;SDS011;32670;51.464;11.964;2023-04-04T11:05:57;1.30;;;1.00;;
46931;SDS011;32670;51.464;11.964;2023-04-04T11:08:26;1.30;;;1.20;;
46931;SDS011;32670;51.464;11.964;2023-04-04T11:10:53;2.07;;;1.10;;
46931;SDS011;32670;51.464;11.964;2023-04-04T11:13:24;1.30;;;1.13;;
46931;SDS011;32670;51.464;11.964;2023-04-04T11:15:57;1.40;;;0.90;;
46931;SDS011;32670;51.464;11.964;2023-04-04T11:21:03;1.10;;;1.00;;
46931;SDS011;32670;51.464;11.964;2023-04-04T11:26:12;1.03;;;0.90;;
46931;SDS011;32670;51.464;11.964;2023-04-04T11:34:03;0.90;;;0.90;;
46931;SDS011;32670;51.464;11.964;2023-04-04T11:41:51;1.07;;;0.87;;
46931;SDS011;32670;51.464;11.964;2023-04-04T11:44:40;1.10;;;1.00;;
46931;SDS011;32670;51.464;11.964;2023-04-04T11:47:26;1.00;;;0.90;;
46931;SDS011;32670;51.464;11.964;2023-04-04T11:49:53;1.03;;;0.90;;
46931;SDS011;32670;51.464;11.964;2023-04-04T11:52:19;1.50;;;1.10;;
46931;SDS011;32670;51.464;11.964;2023-04-04T11:54:45;0.87;;;0.80;;
46931;SDS011;32670;51.464;11.964;2023-04-04T11:57:14;0.80;;;0.77;;
46931;SDS011;32670;51.464;11.964;2023-04-04T11:59:43;1.77;;;1.00;;
46931;SDS011;32670;51.464;11.964;2023-04-04T12:02:10;2.90;;;2.67;;
46931;SDS011;32670;51.464;11.964;2023-04-04T12:04:37;4.50;;;2.17;;
46931;SDS011;32670;51.464;11.964;2023-04-04T12:07:05;1.83;;;1.73;;
46931;SDS011;32670;51.464;11.964;2023-04-04T12:09:31;2.47;;;1.80;;
46931;SDS011;32670;51.464;11.964;2023-04-04T12:11:58;1.93;;;1.73;;
46931;SDS011;32670;51.464;11.964;2023-04-04T12:14:24;2.20;;;2.00;;
46931;SDS011;32670;51.464;11.964;2023-04-04T12:16:52;2.70;;;1.80;;
46931;SDS011;32670;51.464;11.964;2023-04-04T12:19:19;1.87;;;1.67;;
46931;SDS011;32670;51.464;11.964;2023-04-04T12:21:47;2.17;;;1.83;;
46931;SDS011;32670;51.464;11.964;2023-04-04T12:24:13;1.90;;;1.80;;
46931;SDS011;32670;51.464;11.964;2023-04-04T12:26:43;2.10;;;1.90;;
46931;SDS011;32670;51.464;11.964;2023-04-04T12:29:11;1.80;;;1.70;;
46931;SDS011;32670;51.464;11.964;2023-04-04T12:31:38;1.80;;;1.70;;
46931;SDS011;32670;51.464;11.964;2023-04-04T12:34:06;2.03;;;1.77;;
46931;SDS011;32670;51.464;11.964;2023-04-04T12:36:32;1.87;;;1.77;;
46931;SDS011;32670;51.464;11.964;2023-04-04T12:39:08;1.80;;;1.70;;
46931;SDS011;32670;51.464;11.964;2023-04-04T12:41:45;1.80;;;1.50;;
46931;SDS011;32670;51.464;11.964;2023-04-04T12:44:52;1.87;;;1.77;;
46931;SDS011;32670;51.464;11.964;2023-04-04T12:47:14;1.73;;;1.50;;
46931;SDS011;32670;51.464;11.964;2023-04-04T12:49:46;3.30;;;1.57;;
46931;SDS011;32670;51.464;11.964;2023-04-04T12:52:23;1.80;;;1.70;;
46931;SDS011;32670;51.464;11.964;2023-04-04T12:54:53;1.70;;;1.60;;
46931;SDS011;32670;51.464;11.964;2023-04-04T12:57:23;1.67;;;1.57;;
46931;SDS011;32670;51.464;11.964;2023-04-04T12:59:49;2.00;;;1.80;;
46931;SDS011;32670;51.464;11.964;2023-04-04T13:02:18;2.77;;;1.40;;
46931;SDS011;32670;51.464;11.964;2023-04-04T13:04:46;1.77;;;1.67;;
46931;SDS011;32670;51.464;11.964;2023-04-04T13:07:25;2.60;;;2.40;;
46931;SDS011;32670;51.464;11.964;2023-04-04T13:09:52;2.67;;;2.30;;
46931;SDS011;32670;51.464;11.964;2023-04-04T13:12:19;3.43;;;2.10;;
46931;SDS011;32670;51.464;11.964;2023-04-04T13:14:55;4.60;;;1.93;;
46931;SDS011;32670;51.464;11.964;2023-04-04T13:17:24;2.20;;;1.60;;
46931;SDS011;32670;51.464;11.964;2023-04-04T13:20:02;1.97;;;1.27;;
46931;SDS011;32670;51.464;11.964;2023-04-04T13:22:34;2.17;;;1.43;;
46931;SDS011;32670;51.464;11.964;2023-04-04T13:25:04;2.80;;;1.40;;
46931;SDS011;32670;51.464;11.964;2023-04-04T13:27:29;1.90;;;1.40;;
46931;SDS011;32670;51.464;11.964;2023-04-04T13:29:55;2.93;;;1.23;;
46931;SDS011;32670;51.464;11.964;2023-04-04T13:32:21;2.50;;;1.40;;
46931;SDS011;32670;51.464;11.964;2023-04-04T13:34:46;2.63;;;1.30;;
46931;SDS011;32670;51.464;11.964;2023-04-04T13:37:11;2.43;;;1.30;;
46931;SDS011;32670;51.464;11.964;2023-04-04T13:39:37;1.93;;;1.20;;
46931;SDS011;32670;51.464;11.964;2023-04-04T13:42:03;2.40;;;1.37;;
46931;SDS011;32670;51.464;11.964;2023-04-04T13:44:28;3.20;;;1.60;;
46931;SDS011;32670;51.464;11.964;2023-04-04T13:46:53;2.10;;;1.33;;
46931;SDS011;32670;51.464;11.964;2023-04-04T13:49:19;1.97;;;1.33;;
46931;SDS011;32670;51.464;11.964;2023-04-04T13:51:46;1.63;;;1.13;;
46931;SDS011;32670;51.464;11.964;2023-04-04T13:54:11;2.53;;;1.40;;
46931;SDS011;32670;51.464;11.964;2023-04-04T13:56:37;2.90;;;1.50;;
46931;SDS011;32670;51.464;11.964;2023-04-04T13:59:03;1.90;;;1.27;;
46931;SDS011;32670;51.464;11.964;2023-04-04T14:01:29;1.87;;;1.23;;
46931;SDS011;32670;51.464;11.964;2023-04-04T14:03:54;1.90;;;1.17;;
46931;SDS011;32670;51.464;11.964;2023-04-04T14:06:20;3.17;;;1.40;;
46931;SDS011;32670;51.464;11.964;2023-04-04T14:08:45;1.70;;;1.40;;
46931;SDS011;32670;51.464;11.964;2023-04-04T14:11:11;2.17;;;1.60;;
46931;SDS011;32670;51.464;11.964;2023-04-04T14:13:37;2.53;;;1.40;;
46931;SDS011;32670;51.464;11.964;2023-04-04T14:16:03;1.27;;;1.17;;
46931;SDS011;32670;51.464;11.964;2023-04-04T14:18:28;2.77;;;1.30;;
46931;SDS011;32670;51.464;11.964;2023-04-04T14:20:54;3.20;;;1.20;;
46931;SDS011;32670;51.464;11.964;2023-04-04T14:23:20;1.70;;;1.30;;
46931;SDS011;32670;51.464;11.964;2023-04-04T14:25:46;1.70;;;1.43;;
46931;SDS011;32670;51.464;11.964;2023-04-04T14:28:13;2.97;;;1.57;;
46931;SDS011;32670;51.464;11.964;2023-04-04T14:30:39;2.03;;;1.50;;
46931;SDS011;32670;51.464;11.964;2023-04-04T14:33:04;1.77;;;1.40;;
46931;SDS011;32670;51.464;11.964;2023-04-04T14:35:30;2.30;;;1.40;;
46931;SDS011;32670;51.464;11.964;2023-04-04T14:37:55;2.13;;;1.73;;
46931;SDS011;32670;51.464;11.964;2023-04-04T14:40:21;2.40;;;1.97;;
46931;SDS011;32670;51.464;11.964;2023-04-04T14:42:46;2.00;;;1.77;;
46931;SDS011;32670;51.464;11.964;2023-04-04T14:45:14;1.93;;;1.63;;
46931;SDS011;32670;51.464;11.964;2023-04-04T14:47:40;2.20;;;2.00;;
46931;SDS011;32670;51.464;11.964;2023-04-04T14:50:06;3.30;;;1.70;;